Time;durP1;ratioP1;P1;durP2;ratioP2;P2;SDS_P1;SDS_P2;PMS_P1;PMS_P2;Temp;Humidity;BMP_temperature;BMP_pressure;BME280_temperature;BME280_humidity;BME280_pressure;Samples;Min_cycle;Max_cycle;Signal;HPM_P1;HPM_P2
2022/07/10 00:04:13;;;;;;;4.75;1.70;;;;;;;16.85;51.61;100746.53;10466404;28;20144;-68
2022/07/10 00:09:15;;;;;;;8.63;1.88;;;;;;;16.88;51.34;100745.47;10468340;28;20983;-68
2022/07/10 00:14:17;;;;;;;5.72;1.75;;;;;;;16.82;51.33;100737.97;10465176;28;20514;-68
2022/07/10 00:19:18;;;;;;;7.50;2.00;;;;;;;16.70;51.44;100744.16;10457880;28;20123;-68
2022/07/10 00:24:20;;;;;;;4.00;1.63;;;;;;;16.68;50.99;100738.13;10467468;28;20114;-68
2022/07/10 00:29:22;;;;;;;5.78;1.70;;;;;;;16.70;50.76;100734.44;10461646;28;20646;-66
2022/07/10 00:34:24;;;;;;;7.20;1.77;;;;;;;16.65;50.89;100746.31;10463013;28;20165;-67
2022/07/10 00:39:26;;;;;;;7.50;2.08;;;;;;;16.81;50.27;100752.16;10467239;28;20447;-66
2022/07/10 00:44:28;;;;;;;7.95;1.85;;;;;;;16.87;50.34;100757.00;10466822;28;20132;-67
2022/07/10 00:49:29;;;;;;;5.82;1.90;;;;;;;16.88;49.94;100762.16;10466098;28;20121;-68
2022/07/10 00:54:32;;;;;;;6.38;2.00;;;;;;;16.74;49.84;100757.03;10463907;28;20088;-68
2022/07/10 00:59:35;;;;;;;6.57;1.70;;;;;;;16.52;50.39;100748.97;10465074;28;20106;-67
2022/07/10 01:04:37;;;;;;;5.97;1.90;;;;;;;16.43;51.11;100754.00;10466126;28;20060;-67
2022/07/10 01:09:39;;;;;;;5.63;1.70;;;;;;;16.24;51.02;100752.66;10459402;28;20145;-67
2022/07/10 01:14:41;;;;;;;7.32;1.90;;;;;;;16.16;51.51;100756.81;10462838;28;20145;-68
2022/07/10 01:19:43;;;;;;;5.15;1.88;;;;;;;16.09;51.38;100759.03;10461315;28;20394;-68
2022/07/10 01:24:44;;;;;;;5.20;1.92;;;;;;;16.21;50.59;100755.53;10464023;28;20501;-67
2022/07/10 01:29:47;;;;;;;7.78;1.92;;;;;;;16.26;50.60;100757.00;10463681;28;20135;-67
2022/07/10 01:34:49;;;;;;;6.28;1.90;;;;;;;16.20;50.66;100748.56;10444491;28;20143;-67
2022/07/10 01:39:51;;;;;;;5.22;1.85;;;;;;;16.08;50.72;100752.06;10464049;28;20936;-68
2022/07/10 01:44:53;;;;;;;6.55;1.95;;;;;;;16.10;50.87;100760.72;10457011;28;20127;-68
2022/07/10 01:49:55;;;;;;;8.57;1.90;;;;;;;16.12;50.49;100758.81;10462039;28;20094;-68
2022/07/10 01:54:56;;;;;;;6.65;1.95;;;;;;;16.13;50.36;100759.66;10456177;28;20105;-68
2022/07/10 01:59:58;;;;;;;6.55;1.95;;;;;;;16.03;50.13;100754.19;10461985;28;20391;-68
2022/07/10 02:05:00;;;;;;;6.25;1.77;;;;;;;15.87;50.87;100750.91;10464214;28;20143;-69
2022/07/10 02:10:02;;;;;;;4.00;1.70;;;;;;;15.67;50.84;100754.06;10465835;28;20515;-68
2022/07/10 02:15:04;;;;;;;4.97;1.77;;;;;;;15.41;51.06;100757.56;10469170;28;20092;-68
2022/07/10 02:20:06;;;;;;;4.97;1.70;;;;;;;15.21;51.09;100758.03;10471186;28;20484;-69
2022/07/10 02:25:08;;;;;;;7.70;2.00;;;;;;;15.12;51.15;100762.09;10447280;28;20471;-68
2022/07/10 02:30:10;;;;;;;4.82;1.65;;;;;;;15.01;51.38;100759.34;10470489;28;20072;-68
2022/07/10 02:35:12;;;;;;;5.75;1.92;;;;;;;14.89;51.24;100756.66;10470068;28;20094;-68
2022/07/10 02:40:14;;;;;;;5.18;1.65;;;;;;;14.97;51.26;100764.91;10473419;28;20076;-68
2022/07/10 02:45:16;;;;;;;5.63;1.50;;;;;;;15.11;51.10;100767.50;10447242;28;20116;-67
2022/07/10 02:50:17;;;;;;;5.80;1.77;;;;;;;15.19;50.61;100760.78;10456730;28;20134;-67
2022/07/10 02:55:19;;;;;;;7.63;1.73;;;;;;;15.09;51.14;100749.16;10479283;28;20098;-67
2022/07/10 03:00:21;;;;;;;5.03;1.65;;;;;;;14.98;51.22;100762.16;10481601;28;20087;-67
2022/07/10 03:05:23;;;;;;;6.00;1.80;;;;;;;14.80;51.89;100752.81;10475642;28;20121;-69
2022/07/10 03:10:24;;;;;;;5.80;2.00;;;;;;;14.61;52.03;100759.38;10472686;28;20044;-68
2022/07/10 03:15:26;;;;;;;4.60;1.70;;;;;;;14.43;52.60;100761.34;10471288;28;20088;-68
2022/07/10 03:20:28;;;;;;;6.97;1.83;;;;;;;14.35;52.83;100758.34;10472403;28;20430;-68
2022/07/10 03:25:30;;;;;;;6.47;2.00;;;;;;;14.30;52.77;100760.41;10472473;28;20131;-68
2022/07/10 03:30:32;;;;;;;8.65;1.95;;;;;;;14.31;52.81;100773.47;10471317;28;20464;-68
2022/07/10 03:35:33;;;;;;;4.32;1.80;;;;;;;14.22;52.85;100774.03;10470311;28;20156;-68
2022/07/10 03:40:35;;;;;;;5.40;1.90;;;;;;;14.24;52.73;100779.19;10472151;28;20131;-68
2022/07/10 03:45:37;;;;;;;7.05;1.88;;;;;;;14.21;52.99;100774.13;10471117;28;20096;-67
2022/07/10 03:50:39;;;;;;;7.07;1.80;;;;;;;14.37;52.79;100777.53;10454688;28;20135;-67
2022/07/10 03:55:40;;;;;;;7.13;2.20;;;;;;;14.40;52.38;100779.94;10471234;28;20133;-68
2022/07/10 04:00:43;;;;;;;7.78;1.90;;;;;;;14.53;52.22;100781.75;10469708;28;20080;-68
2022/07/10 04:05:44;;;;;;;9.80;2.22;;;;;;;14.59;51.90;100776.09;10470991;28;20555;-68
2022/07/10 04:10:46;;;;;;;6.25;1.80;;;;;;;14.70;51.88;100780.69;10470965;28;20101;-68
2022/07/10 04:15:48;;;;;;;6.75;1.80;;;;;;;14.77;51.23;100782.00;10450927;28;20139;-69
2022/07/10 04:20:50;;;;;;;5.60;1.90;;;;;;;14.81;51.29;100783.50;10470986;28;20132;-68
2022/07/10 04:25:51;;;;;;;9.05;2.03;;;;;;;14.97;50.86;100785.97;10453033;28;20128;-69
2022/07/10 04:30:53;;;;;;;6.80;1.98;;;;;;;14.98;50.84;100785.06;10470192;28;20555;-68
2022/07/10 04:35:55;;;;;;;9.15;2.00;;;;;;;15.00;50.79;100778.72;10469893;28;20090;-68
2022/07/10 04:40:57;;;;;;;7.40;2.00;;;;;;;15.16;50.49;100778.59;10470380;28;20130;-68
2022/07/10 04:45:59;;;;;;;5.60;1.60;;;;;;;15.46;49.94;100773.94;10468443;28;20120;-68
2022/07/10 04:51:00;;;;;;;5.57;1.80;;;;;;;15.72;49.32;100773.06;10469724;28;20099;-70
2022/07/10 04:56:02;;;;;;;6.80;1.80;;;;;;;15.93;48.73;100776.03;10467230;28;20079;-67
2022/07/10 05:01:04;;;;;;;8.40;1.90;;;;;;;16.04;48.46;100779.59;10467643;28;20053;-69
2022/07/10 05:06:06;;;;;;;5.53;1.70;;;;;;;16.00;48.62;100788.69;10469302;28;20088;-69
2022/07/10 05:11:07;;;;;;;5.60;1.58;;;;;;;16.11;48.20;100788.81;10467945;28;20084;-69
2022/07/10 05:16:09;;;;;;;5.07;1.70;;;;;;;16.23;48.01;100806.44;10432356;28;20056;-69
2022/07/10 05:21:18;;;;;;;9.50;1.70;;;;;;;16.24;48.23;100797.53;10448714;28;20803;-67
2022/07/10 05:26:20;;;;;;;7.68;2.05;;;;;;;16.30;48.10;100801.56;10467058;28;20080;-67
2022/07/10 05:31:21;;;;;;;8.40;2.00;;;;;;;16.36;47.93;100801.16;10468103;28;20529;-68
2022/07/10 05:36:24;;;;;;;8.68;1.70;;;;;;;16.63;47.44;100798.38;10449570;28;20807;-67
2022/07/10 05:41:25;;;;;;;7.90;1.85;;;;;;;16.68;46.97;100794.47;10468167;28;20106;-67
2022/07/10 05:46:27;;;;;;;5.95;1.52;;;;;;;16.74;46.53;100795.81;10466317;28;20508;-68
2022/07/10 05:51:29;;;;;;;6.82;1.98;;;;;;;16.67;46.45;100798.03;10467190;28;20056;-68
2022/07/10 05:56:37;;;;;;;6.22;1.80;;;;;;;16.79;46.56;100804.25;10466418;28;20480;-68
2022/07/10 06:01:39;;;;;;;4.25;1.50;;;;;;;16.83;46.50;100813.66;10466438;28;20583;-68
2022/07/10 06:06:41;;;;;;;7.43;1.92;;;;;;;16.82;46.64;100804.03;10466662;28;20814;-68
2022/07/10 06:11:44;;;;;;;5.78;1.70;;;;;;;16.85;46.11;100807.28;10467298;28;20088;-68
2022/07/10 06:16:45;;;;;;;6.28;1.90;;;;;;;17.23;45.73;100804.50;10464466;28;20049;-69
2022/07/10 06:21:47;;;;;;;6.47;1.67;;;;;;;17.50;45.10;100801.66;10466741;28;20056;-68
2022/07/10 06:26:49;;;;;;;5.80;1.80;;;;;;;17.87;44.06;100800.59;10477562;28;20595;-69
2022/07/10 06:31:51;;;;;;;6.75;1.90;;;;;;;18.09;43.81;100800.63;10480734;28;20117;-67
2022/07/10 06:36:52;;;;;;;5.95;1.70;;;;;;;18.57;42.99;100803.91;10478223;28;20048;-68
2022/07/10 06:41:54;;;;;;;6.80;1.80;;;;;;;18.85;42.02;100797.28;10480825;28;20174;-67
2022/07/10 06:52:17;;;;;;;5.43;1.75;;;;;;;19.31;41.35;100793.44;10480048;28;20681;-69
2022/07/10 06:57:20;;;;;;;9.20;2.22;;;;;;;18.86;41.46;100797.13;10478439;28;20051;-69
2022/07/10 07:02:21;;;;;;;8.68;2.13;;;;;;;18.58;42.16;100792.38;10480944;28;20155;-69
2022/07/10 07:07:23;;;;;;;8.45;1.90;;;;;;;18.15;42.50;100794.00;10478919;28;20788;-69
2022/07/10 07:12:26;;;;;;;6.13;1.80;;;;;;;17.94;42.99;100790.34;10478776;28;20520;-68
2022/07/10 07:17:34;;;;;;;7.50;1.85;;;;;;;18.04;43.24;100797.47;10462153;28;20139;-68
2022/07/10 07:27:57;;;;;;;8.77;1.85;;;;;;;18.19;42.53;100798.09;10461628;28;20438;-68
2022/07/10 07:32:59;;;;;;;9.15;2.00;;;;;;;18.02;43.22;100803.84;10475800;28;20469;-69
2022/07/10 07:38:02;;;;;;;7.57;1.95;;;;;;;17.97;43.49;100801.56;10466245;28;20135;-69
2022/07/10 07:43:04;;;;;;;9.48;1.90;;;;;;;17.79;43.89;100802.97;10464040;28;20059;-68
2022/07/10 07:48:07;;;;;;;9.15;2.15;;;;;;;17.99;43.74;100801.44;10467112;28;20052;-69
2022/07/10 07:53:08;;;;;;;9.20;2.00;;;;;;;18.85;42.05;100794.63;10466967;28;20118;-68
2022/07/10 07:58:10;;;;;;;7.72;2.05;;;;;;;21.43;37.75;100778.34;10466557;28;20056;-69
2022/07/10 08:03:12;;;;;;;8.38;2.20;;;;;;;21.43;36.44;100786.34;10462426;28;20718;-68
2022/07/10 08:08:14;;;;;;;6.60;1.65;;;;;;;20.12;38.14;100790.13;10462044;28;20059;-68
2022/07/10 08:13:15;;;;;;;6.57;1.80;;;;;;;20.24;38.23;100778.44;10462519;28;20141;-67
2022/07/10 08:18:17;;;;;;;6.68;1.75;;;;;;;20.40;37.63;100770.81;10426519;28;20324;-68
2022/07/10 08:23:19;;;;;;;7.45;1.95;;;;;;;19.63;38.38;100781.94;10463845;28;20045;-68
2022/07/10 08:28:20;;;;;;;8.48;1.60;;;;;;;19.19;39.04;100777.69;10460689;28;20036;-69
2022/07/10 08:33:25;;;;;;;8.40;1.73;;;;;;;19.05;39.13;100770.03;10463567;28;20135;-77
2022/07/10 08:38:27;;;;;;;5.90;1.70;;;;;;;19.63;38.05;100766.00;10460695;28;20575;-76
2022/07/10 08:43:28;;;;;;;10.00;1.80;;;;;;;19.81;37.10;100769.75;10465399;28;20060;-79
2022/07/10 08:48:33;;;;;;;7.90;1.95;;;;;;;20.27;36.61;100764.91;10462009;28;20171;-79
2022/07/10 08:53:38;;;;;;;5.55;1.60;;;;;;;20.75;36.36;100757.09;10464583;28;20059;-79
2022/07/10 08:58:50;;;;;;;6.53;1.80;;;;;;;20.10;36.94;100766.34;10445270;28;20076;-80
2022/07/10 09:03:52;;;;;;;6.30;1.83;;;;;;;19.74;37.50;100763.31;10464685;28;20207;-78
2022/07/10 09:09:05;;;;;;;7.88;1.92;;;;;;;20.03;37.66;100753.75;10459977;28;20136;-79
2022/07/10 09:14:10;;;;;;;8.40;1.92;;;;;;;21.29;34.38;100745.97;10463863;28;20052;-80
2022/07/10 09:19:24;;;;;;;8.00;2.10;;;;;;;20.64;34.96;100759.88;10461278;28;21027;-80
2022/07/10 09:24:34;;;;;;;7.45;1.80;;;;;;;20.29;36.62;100765.59;10459952;28;20715;-79
2022/07/10 09:29:46;;;;;;;8.48;1.98;;;;;;;21.44;34.15;100750.75;10461461;28;20135;-79
2022/07/10 09:36:04;;;;;;;5.03;1.60;;;;;;;21.97;33.11;100743.06;10462369;28;20087;-79
2022/07/10 09:40:12;;;;;;;6.32;1.70;;;;;;;21.44;33.18;100748.09;10462552;28;20052;-79
2022/07/10 09:45:16;;;;;;;7.88;1.42;;;;;;;21.63;32.15;100739.25;10446964;28;20131;-79
2022/07/10 09:50:33;;;;;;;6.03;1.50;;;;;;;21.91;31.95;100717.03;10459309;28;20059;-79
2022/07/10 09:55:36;;;;;;;4.72;1.75;;;;;;;22.23;31.60;100716.66;10449833;28;20048;-79
2022/07/10 10:00:46;;;;;;;9.38;1.67;;;;;;;22.84;30.47;100716.91;10459640;28;20059;-77
2022/07/10 10:05:58;;;;;;;7.68;1.50;;;;;;;22.96;29.70;100713.03;10458541;28;20064;-78
2022/07/10 10:11:01;;;;;;;6.10;1.25;;;;;;;22.46;30.60;100718.78;10461048;28;20080;-76
2022/07/10 10:16:04;;;;;;;4.80;1.35;;;;;;;22.39;30.82;100707.03;10458961;28;20088;-75
2022/07/10 10:21:07;;;;;;;5.97;1.63;;;;;;;22.35;31.49;100720.81;10460456;28;20052;-76
2022/07/10 10:26:09;;;;;;;5.65;1.63;;;;;;;22.50;31.71;100721.97;10460282;28;20237;-77
2022/07/10 10:31:12;;;;;;;6.82;1.60;;;;;;;22.66;31.74;100712.34;10441688;28;20124;-76
2022/07/10 10:36:35;;;;;;;7.32;1.77;;;;;;;22.84;31.96;100711.56;10458139;28;20102;-76
2022/07/10 10:41:44;;;;;;;4.95;1.60;;;;;;;23.16;31.45;100707.38;10455807;28;20174;-77
2022/07/10 10:47:06;;;;;;;4.05;1.50;;;;;;;23.26;30.36;100701.97;10456496;28;20071;-79
2022/07/10 10:52:13;;;;;;;8.32;1.60;;;;;;;23.20;31.22;100705.25;10430572;28;20364;-78
2022/07/10 10:57:17;;;;;;;4.28;1.50;;;;;;;23.26;31.11;100708.13;10435393;28;20064;-78
2022/07/10 11:02:25;;;;;;;4.90;1.30;;;;;;;22.91;31.01;100702.81;10443185;28;20151;-79
2022/07/10 11:07:53;;;;;;;4.68;1.50;;;;;;;22.23;32.36;100700.69;10426990;28;20130;-79
2022/07/10 11:13:16;;;;;;;4.70;1.67;;;;;;;22.52;32.45;100701.34;10447531;28;20052;-78
2022/07/10 11:18:21;;;;;;;4.22;1.63;;;;;;;22.59;32.57;100710.44;10451770;28;20048;-80
2022/07/10 11:23:51;;;;;;;4.88;1.50;;;;;;;23.11;31.52;100704.31;10468266;28;20084;-79
2022/07/10 11:28:59;;;;;;;3.95;1.40;;;;;;;22.54;32.05;100705.53;10465505;28;20045;-80
2022/07/10 11:34:02;;;;;;;4.10;1.30;;;;;;;22.59;32.69;100703.28;10465767;28;20138;-80
2022/07/10 11:39:06;;;;;;;5.40;1.70;;;;;;;22.87;32.34;100704.09;10465625;28;20124;-79
2022/07/10 11:44:14;;;;;;;4.25;1.40;;;;;;;22.98;32.24;100698.56;10463083;28;20136;-80
2022/07/10 11:49:17;;;;;;;4.47;1.50;;;;;;;22.37;33.08;100698.34;10462899;28;20070;-78
2022/07/10 11:54:18;;;;;;;5.55;1.50;;;;;;;22.56;33.42;100702.72;10464322;28;20056;-80
2022/07/10 11:59:25;;;;;;;6.18;1.50;;;;;;;22.82;33.33;100692.22;10448991;28;20148;-80
2022/07/10 12:04:29;;;;;;;4.07;1.50;;;;;;;22.73;33.30;100687.75;10466966;28;20083;-80
2022/07/10 12:09:32;;;;;;;3.42;1.40;;;;;;;22.77;33.23;100698.00;10447550;28;20052;-80
2022/07/10 12:14:34;;;;;;;4.30;1.50;;;;;;;22.94;33.71;100691.84;10467626;28;20133;-81
2022/07/10 12:19:37;;;;;;;4.05;1.30;;;;;;;23.19;33.69;100691.06;10447747;28;20171;-77
2022/07/10 12:24:40;;;;;;;5.05;1.38;;;;;;;23.08;33.90;100699.31;10465420;28;20372;-79
2022/07/10 12:30:00;;;;;;;4.80;1.30;;;;;;;23.29;33.44;100694.47;10467052;28;20131;-77
2022/07/10 12:35:02;;;;;;;4.53;1.38;;;;;;;23.30;33.29;100704.16;10465661;28;20056;-80
2022/07/10 12:40:04;;;;;;;5.07;1.02;;;;;;;23.86;32.91;100706.41;10463985;28;20617;-79
2022/07/10 12:45:10;;;;;;;1.80;1.02;;;;;;;23.52;33.26;100697.50;10462471;28;20072;-78
2022/07/10 12:50:13;;;;;;;3.13;0.90;;;;;;;23.38;33.30;100706.06;10464183;28;20102;-78
2022/07/10 12:55:21;;;;;;;1.92;0.98;;;;;;;23.52;33.52;100699.34;10465858;28;20135;-79
2022/07/10 13:00:26;;;;;;;2.67;1.05;;;;;;;23.57;33.34;100715.75;10464890;28;20051;-77
2022/07/10 13:05:33;;;;;;;2.17;0.88;;;;;;;23.48;33.36;100714.84;10462154;28;20139;-77
2022/07/10 13:10:36;;;;;;;3.08;1.05;;;;;;;23.22;33.88;100717.44;10460732;28;20041;-80
2022/07/10 13:15:45;;;;;;;3.15;0.90;;;;;;;22.94;34.71;100713.19;10464835;28;20557;-80
2022/07/10 13:20:50;;;;;;;1.95;0.95;;;;;;;22.80;34.90;100718.19;10463895;28;20052;-79
2022/07/10 13:26:01;;;;;;;2.60;0.93;;;;;;;22.96;34.75;100718.38;10463292;28;20048;-80
2022/07/10 13:31:02;;;;;;;3.65;1.30;;;;;;;22.86;34.78;100713.06;10461568;28;20044;-78
2022/07/10 13:36:05;;;;;;;1.42;0.90;;;;;;;22.95;34.89;100725.53;10463422;28;20049;-79
2022/07/10 13:41:06;;;;;;;2.70;1.10;;;;;;;23.22;34.38;100725.47;10463626;28;20117;-80
2022/07/10 13:46:08;;;;;;;3.78;1.00;;;;;;;23.06;34.77;100719.13;10464707;28;20040;-80
2022/07/10 13:51:10;;;;;;;3.10;1.10;;;;;;;22.77;35.43;100722.00;10465700;28;20052;-79
2022/07/10 13:56:12;;;;;;;3.60;1.30;;;;;;;23.09;34.87;100722.31;10467615;28;20045;-80
2022/07/10 14:01:17;;;;;;;2.55;1.30;;;;;;;22.96;35.62;100726.38;10439027;28;20393;-80
2022/07/10 14:06:20;;;;;;;3.35;1.30;;;;;;;23.23;35.12;100720.94;10468156;28;20504;-78
2022/07/10 14:11:22;;;;;;;2.90;1.25;;;;;;;23.17;35.40;100710.88;10466723;28;20060;-79
2022/07/10 14:16:24;;;;;;;4.45;1.35;;;;;;;23.09;35.06;100716.13;10450323;28;20113;-81
2022/07/10 14:21:27;;;;;;;3.80;1.52;;;;;;;23.05;35.82;100710.28;10466131;28;20225;-80
2022/07/10 14:26:29;;;;;;;3.33;1.60;;;;;;;22.93;35.62;100714.16;10462889;28;20044;-78
2022/07/10 14:31:31;;;;;;;3.65;1.60;;;;;;;22.94;36.02;100720.34;10465272;28;20071;-79
2022/07/10 14:36:33;;;;;;;2.90;1.60;;;;;;;23.43;35.61;100717.16;10466198;28;20083;-78
2022/07/10 14:41:34;;;;;;;3.90;1.70;;;;;;;23.35;35.65;100720.53;10464795;28;20144;-78
2022/07/10 14:46:36;;;;;;;3.53;1.85;;;;;;;22.92;36.57;100717.84;10469843;28;20140;-81
2022/07/10 14:51:39;;;;;;;4.60;2.08;;;;;;;22.67;36.99;100735.38;10473062;28;20040;-81
2022/07/10 14:56:42;;;;;;;3.72;2.30;;;;;;;22.41;37.19;100725.56;10447037;28;20819;-80
2022/07/10 15:01:44;;;;;;;4.60;2.60;;;;;;;22.54;37.35;100721.53;10474644;28;20044;-80
2022/07/10 15:06:47;;;;;;;6.03;2.50;;;;;;;22.39;37.95;100727.53;10473373;28;20088;-77
2022/07/10 15:11:49;;;;;;;4.47;2.00;;;;;;;22.17;38.39;100723.41;10470573;28;20048;-80
2022/07/10 15:16:50;;;;;;;5.15;2.30;;;;;;;22.15;38.61;100720.06;10464193;28;20048;-80
2022/07/10 15:21:52;;;;;;;3.30;2.15;;;;;;;22.10;38.78;100726.81;10458433;28;20155;-81
2022/07/10 15:26:54;;;;;;;4.55;2.55;;;;;;;21.75;39.46;100722.13;10470710;28;20236;-81
2022/07/10 15:31:56;;;;;;;5.65;2.95;;;;;;;21.97;39.41;100712.94;10471899;28;20143;-81
2022/07/10 15:37:00;;;;;;;5.75;2.78;;;;;;;22.24;39.19;100705.84;10469765;28;20056;-80
2022/07/10 15:42:02;;;;;;;5.68;2.50;;;;;;;22.42;38.86;100701.41;10456849;28;20045;-80
2022/07/10 15:47:04;;;;;;;4.07;2.40;;;;;;;22.34;39.07;100698.66;10465241;28;20455;-80
2022/07/10 15:52:07;;;;;;;4.55;2.05;;;;;;;22.12;39.24;100693.72;10460169;28;20098;-80
2022/07/10 15:57:08;;;;;;;4.95;2.47;;;;;;;22.32;38.78;100700.63;10460918;28;20993;-80
2022/07/10 16:02:10;;;;;;;3.80;2.00;;;;;;;22.10;39.36;100693.03;10466985;28;20053;-80
2022/07/10 16:07:13;;;;;;;4.38;1.98;;;;;;;21.70;40.13;100697.75;10467109;28;20084;-80
2022/07/10 16:12:15;;;;;;;5.45;2.05;;;;;;;21.63;40.59;100696.66;10462260;28;20437;-80
2022/07/10 16:17:17;;;;;;;5.15;2.17;;;;;;;21.39;40.92;100699.78;10460282;28;20139;-81
2022/07/10 16:22:19;;;;;;;4.10;2.20;;;;;;;21.09;42.01;100700.72;10451789;28;20084;-80
2022/07/10 16:27:20;;;;;;;5.28;2.03;;;;;;;20.97;42.73;100701.84;10466806;28;20052;-82
2022/07/10 16:32:22;;;;;;;4.32;2.00;;;;;;;21.07;42.96;100694.72;10450282;28;20931;-81
2022/07/10 16:37:24;;;;;;;3.72;1.80;;;;;;;21.35;43.10;100693.06;10427749;28;20918;-80
2022/07/10 16:42:26;;;;;;;3.58;1.75;;;;;;;21.16;43.61;100687.72;10463126;28;20137;-81
2022/07/10 16:47:30;;;;;;;4.40;1.63;;;;;;;20.99;43.77;100680.44;10446081;28;21208;-81
2022/07/10 16:52:32;;;;;;;3.92;1.60;;;;;;;20.96;43.87;100675.41;10449228;28;20076;-81
2022/07/10 16:57:33;;;;;;;5.95;1.58;;;;;;;20.92;44.24;100682.00;10447493;28;20048;-80
2022/07/10 17:02:36;;;;;;;3.50;1.60;;;;;;;20.82;44.22;100679.34;10461596;28;20143;-81
2022/07/10 17:07:39;;;;;;;3.78;1.67;;;;;;;20.53;44.79;100673.09;10432361;28;20167;-81
2022/07/10 17:12:41;;;;;;;4.65;1.92;;;;;;;20.37;45.02;100675.44;10452869;28;20139;-80
2022/07/10 17:17:43;;;;;;;2.83;1.50;;;;;;;20.17;45.37;100679.03;10446525;28;20052;-80
2022/07/10 17:22:45;;;;;;;5.40;2.20;;;;;;;20.11;45.49;100672.41;10447228;28;20064;-81
2022/07/10 17:27:47;;;;;;;4.18;1.67;;;;;;;20.18;45.50;100675.38;10445672;28;20074;-80
2022/07/10 17:32:49;;;;;;;4.68;1.80;;;;;;;20.06;45.80;100669.34;10429053;28;20080;-79
2022/07/10 17:37:58;;;;;;;4.17;1.80;;;;;;;20.05;45.69;100666.81;10422873;28;20065;-80
2022/07/10 17:43:00;;;;;;;4.85;1.90;;;;;;;19.96;45.96;100668.47;10444102;28;20055;-79
2022/07/10 17:48:02;;;;;;;6.60;1.95;;;;;;;19.91;46.19;100664.53;10442801;28;20182;-80
2022/07/10 17:53:04;;;;;;;7.75;2.00;;;;;;;19.66;46.66;100660.47;10443910;28;20079;-80
2022/07/10 17:58:06;;;;;;;3.83;1.90;;;;;;;19.66;46.69;100660.47;10420062;28;20110;-81
2022/07/10 18:03:08;;;;;;;7.88;1.70;;;;;;;19.57;47.04;100655.94;10440221;28;20139;-80
2022/07/10 18:08:17;;;;;;;4.82;1.80;;;;;;;19.54;47.04;100656.22;10413172;28;20067;-79
2022/07/10 18:13:20;;;;;;;6.70;1.90;;;;;;;19.38;47.24;100658.47;10443251;28;20151;-80
2022/07/10 18:18:22;;;;;;;4.95;1.98;;;;;;;19.22;47.74;100658.06;10444022;28;20045;-79
2022/07/10 18:23:26;;;;;;;6.28;2.00;;;;;;;19.24;47.74;100664.94;10422261;28;20044;-78
2022/07/10 18:28:28;;;;;;;6.35;1.95;;;;;;;19.27;47.84;100666.50;10436235;28;20081;-77
2022/07/10 18:39:06;;;;;;;4.65;1.83;;;;;;;19.30;48.29;100655.63;10438766;28;20424;-79
2022/07/10 18:44:15;;;;;;;6.38;2.00;;;;;;;18.98;48.97;100666.25;10439585;28;20103;-77
2022/07/10 18:49:17;;;;;;;4.57;2.00;;;;;;;19.03;48.75;100661.41;10462733;28;20127;-79
2022/07/10 18:54:19;;;;;;;4.95;1.90;;;;;;;19.05;49.07;100658.66;10460282;28;20469;-81
2022/07/10 18:59:20;;;;;;;6.85;2.25;;;;;;;19.06;49.01;100666.47;10455194;28;20114;-67
2022/07/10 19:04:22;;;;;;;4.38;1.95;;;;;;;19.04;48.81;100663.13;10459853;28;20044;-66
2022/07/10 19:09:26;;;;;;;5.43;2.28;;;;;;;18.90;49.37;100660.75;10457493;28;20127;-67
2022/07/10 19:14:28;;;;;;;5.55;2.00;;;;;;;18.94;49.45;100661.31;10458930;28;20116;-66
2022/07/10 19:19:30;;;;;;;7.30;2.20;;;;;;;19.04;49.19;100665.78;10455286;28;20076;-67
2022/07/10 19:24:32;;;;;;;7.07;2.08;;;;;;;19.00;49.52;100664.31;10455125;28;20618;-67
2022/07/10 19:29:34;;;;;;;4.68;1.88;;;;;;;18.84;50.00;100660.41;10457184;28;20057;-67
2022/07/10 19:34:36;;;;;;;3.25;1.90;;;;;;;18.79;50.09;100658.13;10463497;28;20544;-67
2022/07/10 19:39:37;;;;;;;5.60;2.30;;;;;;;18.49;50.62;100663.28;10466555;28;20121;-67
2022/07/10 19:44:41;;;;;;;4.75;1.92;;;;;;;18.61;50.38;100659.63;10441801;28;20048;-67
2022/07/10 19:49:44;;;;;;;5.03;2.08;;;;;;;18.83;49.85;100661.38;10448294;28;20473;-67
2022/07/10 19:54:45;;;;;;;5.10;1.90;;;;;;;18.84;49.98;100665.69;10444927;28;20143;-67
2022/07/10 19:59:47;;;;;;;6.57;2.10;;;;;;;18.88;49.99;100657.38;10440832;28;20048;-67
2022/07/10 20:04:49;;;;;;;5.03;1.98;;;;;;;18.93;49.90;100663.13;10449874;28;20049;-67
2022/07/10 20:09:51;;;;;;;4.93;2.08;;;;;;;18.94;50.02;100666.63;10465647;28;20052;-67
2022/07/10 20:14:53;;;;;;;4.28;1.90;;;;;;;18.86;50.55;100675.22;10465555;28;20139;-67
2022/07/10 20:19:55;;;;;;;5.32;2.00;;;;;;;18.86;50.55;100666.41;10464664;28;20127;-67
2022/07/10 20:24:57;;;;;;;4.25;1.90;;;;;;;18.93;50.52;100665.78;10463089;28;20412;-67
2022/07/10 20:29:59;;;;;;;6.88;2.17;;;;;;;18.92;50.46;100666.75;10465676;28;20052;-67
2022/07/10 20:35:01;;;;;;;3.97;1.90;;;;;;;18.91;50.40;100669.53;10463052;28;20135;-67
2022/07/10 20:40:04;;;;;;;3.58;1.83;;;;;;;18.87;50.38;100660.97;10463258;28;20841;-68
2022/07/10 20:45:09;;;;;;;4.75;2.10;;;;;;;18.84;50.33;100668.34;10442477;28;20049;-67
2022/07/10 20:50:11;;;;;;;6.57;2.00;;;;;;;18.77;50.51;100662.72;10464449;28;20131;-67
2022/07/10 20:55:14;;;;;;;4.28;1.90;;;;;;;18.77;50.59;100659.25;10463411;28;20171;-67
2022/07/10 21:00:16;;;;;;;5.68;1.95;;;;;;;18.65;50.63;100656.63;10460641;28;20106;-65
2022/07/10 21:05:18;;;;;;;4.13;1.90;;;;;;;18.63;50.66;100653.25;10454517;28;20060;-65
2022/07/10 21:15:41;;;;;;;3.90;1.80;;;;;;;18.46;51.26;100651.13;10461697;28;20104;-65
2022/07/10 21:20:43;;;;;;;6.43;2.00;;;;;;;18.51;51.00;100656.06;10460408;28;20044;-66
2022/07/10 21:25:45;;;;;;;7.22;2.10;;;;;;;18.49;51.17;100657.97;10467112;28;20163;-65
2022/07/10 21:30:46;;;;;;;4.63;2.17;;;;;;;18.40;51.42;100661.41;10467068;28;20156;-65
2022/07/10 21:35:48;;;;;;;5.65;2.10;;;;;;;18.35;51.35;100653.81;10447227;28;20059;-65
2022/07/10 21:40:50;;;;;;;4.78;2.10;;;;;;;18.40;51.23;100653.44;10466527;28;20136;-67
2022/07/10 21:45:52;;;;;;;7.97;2.00;;;;;;;18.37;51.31;100651.88;10467131;28;20154;-66
2022/07/10 21:50:54;;;;;;;5.07;2.13;;;;;;;18.38;51.23;100658.03;10464202;28;20596;-69
2022/07/10 21:55:56;;;;;;;6.07;1.95;;;;;;;18.43;51.47;100647.88;10467057;28;20142;-66
2022/07/10 22:00:58;;;;;;;5.18;2.22;;;;;;;18.43;51.34;100651.38;10465824;28;20060;-66
2022/07/10 22:06:04;;;;;;;7.60;2.25;;;;;;;18.35;51.45;100650.31;10466607;28;20052;-66
2022/07/10 22:11:06;;;;;;;5.07;2.08;;;;;;;18.18;52.03;100650.81;10464438;28;20131;-66
2022/07/10 22:16:07;;;;;;;4.63;2.10;;;;;;;18.17;52.03;100642.03;10437804;28;20179;-65
2022/07/10 22:21:09;;;;;;;6.22;2.03;;;;;;;18.08;52.63;100639.25;10464977;28;20055;-66
2022/07/10 22:26:11;;;;;;;5.65;2.08;;;;;;;18.09;52.42;100646.22;10464625;28;20139;-68
2022/07/10 22:31:22;;;;;;;6.45;2.53;;;;;;;18.12;52.33;100645.97;10463310;28;20127;-65
2022/07/10 22:36:25;;;;;;;7.28;2.30;;;;;;;18.14;52.16;100642.25;10466486;28;20044;-65
2022/07/10 22:41:28;;;;;;;6.72;2.13;;;;;;;18.08;52.53;100637.44;10465659;28;20135;-65
2022/07/10 22:46:29;;;;;;;8.43;2.40;;;;;;;18.17;52.39;100631.44;10464588;28;21212;-65
2022/07/10 22:51:31;;;;;;;4.95;2.20;;;;;;;18.09;52.44;100628.56;10464713;28;20384;-67
2022/07/10 22:56:33;;;;;;;8.25;2.30;;;;;;;18.15;52.53;100633.34;10447089;28;20040;-67
2022/07/10 23:01:35;;;;;;;5.18;2.40;;;;;;;18.16;52.67;100626.22;10455534;28;20131;-67
2022/07/10 23:06:37;;;;;;;5.63;2.17;;;;;;;17.98;53.18;100625.06;10456696;28;20130;-67
2022/07/10 23:11:38;;;;;;;7.38;2.53;;;;;;;17.85;53.46;100622.56;10468983;28;20083;-68
2022/07/10 23:16:41;;;;;;;4.20;2.20;;;;;;;17.92;53.51;100621.09;10466628;28;20064;-67
2022/07/10 23:21:42;;;;;;;6.75;2.20;;;;;;;17.98;53.11;100614.47;10450042;28;20045;-67
2022/07/10 23:26:44;;;;;;;6.22;2.30;;;;;;;18.15;52.85;100603.38;10470783;28;20138;-67
2022/07/10 23:31:46;;;;;;;8.00;2.20;;;;;;;18.17;52.79;100599.66;10470867;28;20084;-67
2022/07/10 23:36:51;;;;;;;5.90;2.20;;;;;;;18.24;52.48;100602.69;10450755;28;20049;-67